»·PEaware :: N511AT KRNM-KTRM

N511AT :: KRNM-KTRM

FLIGHT INFORMATION

Flight Status: Arrived
Operator: Privately registered:
United States
More flights under this callsign
Pilot: Raymond W. (27419)
Aircraft: CIRRUS SR-22
(SR22)
More flights by this aircraft type
Origin: KRNM Ramona
United States
Destination: KTRM Desert Resorts Regl
United States
More flights between these airports :: More routes between these airports
Route: +ROBNN V208 TRM
File this flight plan on PilotEdge
Remarks:
Altitude:
(Current/Filed)
9,000ft
Speed:
(Current/Filed)
170kts
Departed: 03-Sep-20 09:46 AM
Arrived: 03-Sep-20 10:37 AM
Distance/Time
Traveled:
50nm/0:50
Distance/Time
To Go:
Arrived

Flight Plot

Page will automatically refresh every two minutes.

Flight plan parsing failed; only flown route is shown


Map Options




Map Legend


Flown Route
Filed Route
Departure Airport
Arrival Airport
Navaid (VOR, NDB)
Fix

Horizontal Profiles

Position Reports

Time Latitude Longitude Heading Altitude Ground
Speed
03-Sep-20 09:33 33.039293 -116.908023 275 1389ft 0kts
03-Sep-20 09:34 33.039293 -116.908023 275 1389ft 0kts
03-Sep-20 09:35 33.039293 -116.908023 275 1389ft 0kts
03-Sep-20 09:36 33.039293 -116.908023 275 1389ft 0kts
03-Sep-20 09:37 33.039293 -116.908023 275 1389ft 0kts
03-Sep-20 09:38 33.039293 -116.908023 275 1389ft 0kts
03-Sep-20 09:39 33.039293 -116.908023 275 1389ft 0kts
03-Sep-20 09:40 33.039293 -116.908023 275 1389ft 0kts
03-Sep-20 09:41 33.039293 -116.908023 275 1389ft 0kts
03-Sep-20 09:42 33.039293 -116.908024 275 1389ft 0kts
03-Sep-20 09:43 33.039293 -116.908024 275 1389ft 0kts
03-Sep-20 09:44 33.038581 -116.907546 189 1388ft 0kts
03-Sep-20 09:45 33.038581 -116.907546 189 1388ft 0kts
03-Sep-20 09:46 33.039508 -116.918160 276 1526ft 111kts
03-Sep-20 09:47 33.045013 -116.959991 279 2968ft 138kts
03-Sep-20 09:47 33.055279 -116.995634 298 4283ft 138kts
03-Sep-20 09:48 33.067815 -117.037076 242 5809ft 136kts
03-Sep-20 09:50 33.030793 -117.056127 191 7295ft 133kts
03-Sep-20 09:50 33.003321 -117.065977 190 8197ft 135kts
03-Sep-20 09:51 32.994548 -117.035801 72 9016ft 142kts
03-Sep-20 09:52 33.009763 -116.987495 70 9002ft 162kts
03-Sep-20 09:54 33.023608 -116.944967 70 8999ft 163kts
03-Sep-20 09:54 33.037388 -116.902813 70 8999ft 163kts
03-Sep-20 09:55 33.053910 -116.852251 70 8999ft 163kts
03-Sep-20 09:56 33.068091 -116.808799 70 8999ft 163kts
03-Sep-20 09:57 33.084564 -116.758249 70 8998ft 163kts
03-Sep-20 09:58 33.101040 -116.707607 70 8998ft 163kts
03-Sep-20 09:59 33.117478 -116.656999 70 8998ft 163kts
03-Sep-20 10:00 33.133926 -116.606281 70 8997ft 163kts
03-Sep-20 10:01 33.163500 -116.566175 39 8999ft 168kts
03-Sep-20 10:02 33.201327 -116.533223 39 8998ft 168kts
03-Sep-20 10:03 33.239180 -116.500306 39 8998ft 168kts
03-Sep-20 10:04 33.276995 -116.467388 39 8998ft 168kts
03-Sep-20 10:05 33.314773 -116.434493 39 8998ft 168kts
03-Sep-20 10:06 33.352702 -116.401432 39 8998ft 168kts
03-Sep-20 10:07 33.390499 -116.368442 39 8998ft 168kts
03-Sep-20 10:08 33.519387 -116.255676 39 9001ft 168kts
03-Sep-20 10:09 33.557248 -116.222470 39 9000ft 168kts
03-Sep-20 10:10 33.596630 -116.187827 39 8552ft 180kts
03-Sep-20 10:11 33.621653 -116.143875 118 8021ft 176kts
03-Sep-20 10:12 33.594623 -116.095045 121 7538ft 176kts
03-Sep-20 10:13 33.568484 -116.046569 121 6910ft 166kts
03-Sep-20 10:14 33.544055 -116.000599 120 6204ft 162kts
03-Sep-20 10:15 33.519940 -115.955060 120 5503ft 161kts
03-Sep-20 10:16 33.482098 -115.954051 209 4775ft 172kts
03-Sep-20 10:17 33.453134 -116.000326 237 4065ft 177kts
03-Sep-20 10:18 33.463085 -116.046584 336 3395ft 173kts
03-Sep-20 10:19 33.505048 -116.073796 334 2709ft 170kts
03-Sep-20 10:20 33.541979 -116.099391 334 2037ft 116kts
03-Sep-20 10:21 33.569207 -116.118498 335 1224ft 113kts
03-Sep-20 10:22 33.596007 -116.137453 335 541ft 112kts
03-Sep-20 10:23 33.625788 -116.158620 331 848ft 140kts
03-Sep-20 10:24 33.657998 -116.163666 76 2377ft 122kts
03-Sep-20 10:25 33.631163 -116.155230 194 3575ft 147kts
03-Sep-20 10:26 33.608463 -116.122420 115 4582ft 133kts
03-Sep-20 10:27 33.594764 -116.081328 60 5376ft 146kts
03-Sep-20 10:28 33.629581 -116.101505 302 5406ft 187kts
03-Sep-20 10:29 33.656679 -116.155433 302 5399ft 183kts
03-Sep-20 10:30 33.660322 -116.191805 190 4752ft 98kts
03-Sep-20 10:31 33.639144 -116.177899 137 3803ft 87kts
03-Sep-20 10:32 33.616125 -116.171234 178 2809ft 94kts
03-Sep-20 10:33 33.614391 -116.155388 18 1822ft 94kts
03-Sep-20 10:34 33.610429 -116.139935 192 850ft 95kts
03-Sep-20 10:35 33.607797 -116.169643 270 -18ft 87kts
03-Sep-20 10:36 33.607823 -116.181077 264 -107ft 0kts

Navigation Log

Ident Type
Flight plan parsing failed, navigation log unavailable